createdAt,value
2022-08-27T00:00:49.185Z,24.07
2022-08-27T00:03:16.866Z,23.99
2022-08-27T00:05:44.326Z,24.05
2022-08-27T00:08:12.934Z,24.20
2022-08-27T00:10:41.596Z,24.37
2022-08-27T00:13:09.024Z,24.30
2022-08-27T00:15:36.048Z,24.29
2022-08-27T00:18:03.105Z,24.16
2022-08-27T00:20:30.168Z,24.23
2022-08-27T00:22:57.129Z,24.10
2022-08-27T00:25:24.115Z,23.77
2022-08-27T00:27:51.788Z,23.67
2022-08-27T00:30:21.166Z,23.71
2022-08-27T00:32:48.322Z,23.67
2022-08-27T00:35:16.295Z,23.79
2022-08-27T00:37:44.625Z,24.00
2022-08-27T00:40:17.061Z,23.86
2022-08-27T00:42:46.114Z,23.42
2022-08-27T00:45:18.976Z,23.69
2022-08-27T00:47:51.248Z,23.92
2022-08-27T00:50:23.893Z,24.15
2022-08-27T00:52:57.977Z,23.72
2022-08-27T00:55:30.548Z,23.55
2022-08-27T00:58:14.968Z,23.43
2022-08-27T01:00:42.825Z,23.30
2022-08-27T01:03:09.884Z,23.45
2022-08-27T01:05:38.382Z,23.48
2022-08-27T01:08:13.218Z,23.46
2022-08-27T01:10:40.962Z,23.25
2022-08-27T01:13:13.167Z,23.31
2022-08-27T01:15:41.676Z,23.59
2022-08-27T01:18:10.033Z,23.74
2022-08-27T01:20:58.121Z,23.88
2022-08-27T01:23:37.139Z,23.75
2022-08-27T01:26:06.770Z,23.68
2022-08-27T01:28:37.413Z,23.77
2022-08-27T01:31:10.715Z,23.63
2022-08-27T01:33:39.026Z,23.59
2022-08-27T01:36:06.968Z,23.50
2022-08-27T01:38:34.499Z,23.41
2022-08-27T01:41:03.697Z,23.58
2022-08-27T01:43:31.846Z,23.62
2022-08-27T01:45:59.251Z,23.59
2022-08-27T01:48:26.181Z,23.09
2022-08-27T01:50:53.174Z,23.18
2022-08-27T01:53:24.927Z,23.09
2022-08-27T01:55:53.585Z,23.16
2022-08-27T01:58:27.385Z,22.94
2022-08-27T02:00:58.197Z,23.13
2022-08-27T02:03:25.644Z,23.19
2022-08-27T02:05:52.994Z,23.44
2022-08-27T02:08:20.105Z,23.64
2022-08-27T02:10:49.744Z,23.49
2022-08-27T02:13:17.396Z,23.20
2022-08-27T02:15:44.922Z,23.19
2022-08-27T02:18:12.334Z,23.25
2022-08-27T02:20:39.700Z,23.31
2022-08-27T02:23:07.410Z,23.59
2022-08-27T02:25:34.538Z,23.44
2022-08-27T02:28:02.029Z,23.51
2022-08-27T02:30:32.235Z,23.49
2022-08-27T02:33:03.042Z,23.52
2022-08-27T02:35:32.402Z,23.16
2022-08-27T02:37:59.836Z,23.22
2022-08-27T02:40:27.305Z,23.09
2022-08-27T02:42:54.330Z,22.96
2022-08-27T02:45:21.704Z,23.37
2022-08-27T02:47:48.681Z,23.32
2022-08-27T02:50:15.769Z,23.56
2022-08-27T02:52:44.837Z,23.54
2022-08-27T02:55:14.640Z,23.30
2022-08-27T02:57:45.567Z,23.39
2022-08-27T03:00:16.311Z,23.35
2022-08-27T03:02:43.519Z,23.02
2022-08-27T03:05:12.730Z,22.85
2022-08-27T03:07:40.441Z,22.99
2022-08-27T03:10:09.182Z,23.08
2022-08-27T03:12:36.634Z,23.05
2022-08-27T03:15:06.531Z,23.12
2022-08-27T03:17:52.152Z,23.06
2022-08-27T03:20:19.524Z,23.14
2022-08-27T03:22:46.510Z,23.24
2022-08-27T03:25:13.805Z,23.12
2022-08-27T03:27:41.061Z,22.91
2022-08-27T03:30:12.183Z,23.04
2022-08-27T03:32:39.226Z,23.11
2022-08-27T03:35:06.756Z,23.13
2022-08-27T03:37:34.160Z,23.30
2022-08-27T03:40:01.564Z,23.47
2022-08-27T03:42:28.578Z,23.59
2022-08-27T03:44:55.584Z,23.48
2022-08-27T03:47:23.866Z,23.38
2022-08-27T03:49:50.864Z,23.14
2022-08-27T03:52:18.078Z,23.52
2022-08-27T03:54:45.731Z,23.48
2022-08-27T03:57:12.668Z,23.82
2022-08-27T03:59:39.624Z,23.77
2022-08-27T04:02:07.010Z,23.80
2022-08-27T04:04:34.194Z,23.91
2022-08-27T04:07:01.146Z,23.71
2022-08-27T04:09:28.505Z,23.93
2022-08-27T04:11:55.827Z,24.10
2022-08-27T04:14:26.755Z,24.10
2022-08-27T04:16:57.555Z,24.06
2022-08-27T04:19:28.014Z,24.02
2022-08-27T04:22:03.451Z,24.18
2022-08-27T04:24:32.637Z,24.41
2022-08-27T04:27:01.052Z,24.89
2022-08-27T04:29:28.764Z,25.15
2022-08-27T04:31:56.304Z,25.56
2022-08-27T04:34:23.762Z,25.58
2022-08-27T04:36:50.837Z,25.29
2022-08-27T04:39:17.836Z,25.11
2022-08-27T04:41:44.812Z,25.27
2022-08-27T04:44:12.278Z,24.80
2022-08-27T04:46:40.763Z,24.55
2022-08-27T04:49:12.446Z,24.62
2022-08-27T04:51:41.188Z,24.66
2022-08-27T04:54:09.839Z,24.85
2022-08-27T04:56:38.150Z,24.91
2022-08-27T04:59:08.243Z,24.90
2022-08-27T05:01:35.656Z,25.12
2022-08-27T05:04:03.030Z,25.39
2022-08-27T05:06:30.222Z,25.52
2022-08-27T05:08:58.751Z,25.42
2022-08-27T05:11:32.248Z,25.04
2022-08-27T05:13:59.473Z,25.02
2022-08-27T05:16:26.393Z,25.06
2022-08-27T05:18:53.775Z,25.28
2022-08-27T05:21:27.350Z,25.77
2022-08-27T05:23:56.173Z,26.22
2022-08-27T05:26:23.284Z,26.27
2022-08-27T05:28:51.145Z,26.52
2022-08-27T05:31:19.766Z,26.26
2022-08-27T05:33:47.218Z,26.33
2022-08-27T05:36:21.221Z,26.44
2022-08-27T05:38:49.482Z,26.14
2022-08-27T05:41:19.711Z,25.82
2022-08-27T05:43:50.162Z,25.78
2022-08-27T05:46:20.646Z,25.78
2022-08-27T05:48:48.435Z,25.61
2022-08-27T05:51:43.384Z,26.14
2022-08-27T05:54:16.837Z,26.27
2022-08-27T05:56:43.900Z,26.20
2022-08-27T05:59:29.280Z,26.21
2022-08-27T06:01:56.989Z,26.89
2022-08-27T06:04:25.112Z,27.03
2022-08-27T06:06:52.964Z,27.42
2022-08-27T06:09:22.459Z,27.67
2022-08-27T06:11:50.238Z,28.10
2022-08-27T06:14:17.239Z,28.37
2022-08-27T06:16:44.548Z,28.82
2022-08-27T06:19:12.376Z,29.51
2022-08-27T06:21:41.964Z,29.66
2022-08-27T06:24:09.888Z,30.09
2022-08-27T06:26:36.829Z,30.12
2022-08-27T06:29:08.415Z,29.86
2022-08-27T06:31:35.770Z,29.48
2022-08-27T06:34:07.562Z,29.58
2022-08-27T06:36:39.966Z,29.48
2022-08-27T06:39:08.567Z,29.78
2022-08-27T06:41:35.876Z,29.93
2022-08-27T06:44:11.554Z,30.48
2022-08-27T06:46:39.218Z,30.03
2022-08-27T06:49:07.333Z,30.62
2022-08-27T06:51:37.857Z,30.21
2022-08-27T06:54:08.254Z,30.44
2022-08-27T06:56:36.374Z,30.81
2022-08-27T06:59:06.260Z,31.36
2022-08-27T07:01:41.870Z,32.22
2022-08-27T07:04:12.100Z,32.91
2022-08-27T07:06:40.553Z,33.19
2022-08-27T07:09:09.639Z,33.97
2022-08-27T07:11:38.452Z,34.21
2022-08-27T07:14:06.475Z,33.81
2022-08-27T07:16:34.249Z,34.07
2022-08-27T07:19:03.803Z,34.44
2022-08-27T07:21:33.127Z,34.41
2022-08-27T07:24:05.075Z,35.02
2022-08-27T07:26:34.916Z,34.45
2022-08-27T07:29:03.035Z,34.27
2022-08-27T07:31:30.093Z,34.67
2022-08-27T07:33:57.126Z,34.30
2022-08-27T07:36:24.732Z,34.22
2022-08-27T07:38:59.124Z,34.71
2022-08-27T07:41:31.845Z,35.12
2022-08-27T07:44:20.515Z,34.78
2022-08-27T07:46:49.299Z,35.31
2022-08-27T07:49:20.333Z,36.09
2022-08-27T07:51:47.483Z,35.73
2022-08-27T07:54:15.316Z,36.21
2022-08-27T07:56:42.358Z,36.98
2022-08-27T07:59:11.263Z,37.89
2022-08-27T08:01:38.917Z,38.88
2022-08-27T08:04:06.066Z,38.33
2022-08-27T08:06:36.215Z,38.44
2022-08-27T08:09:03.249Z,39.19
2022-08-27T08:11:30.563Z,38.98
2022-08-27T08:13:57.526Z,39.18
2022-08-27T08:16:29.570Z,40.37
2022-08-27T08:19:00.411Z,40.39
2022-08-27T08:21:27.644Z,39.80
2022-08-27T08:23:54.770Z,40.79
2022-08-27T08:26:21.861Z,39.05
2022-08-27T08:28:48.865Z,37.98
2022-08-27T08:31:16.399Z,39.10
2022-08-27T08:33:43.385Z,39.55
2022-08-27T08:36:13.647Z,39.63
2022-08-27T08:38:41.375Z,39.75
2022-08-27T08:41:28.176Z,40.83
2022-08-27T08:44:03.505Z,40.53
2022-08-27T08:46:46.690Z,41.55
2022-08-27T08:49:33.415Z,40.52
2022-08-27T08:52:31.158Z,41.70
2022-08-27T08:55:19.976Z,40.10
2022-08-27T08:58:28.097Z,40.76
2022-08-27T09:01:03.855Z,40.89
2022-08-27T09:03:36.375Z,40.95
2022-08-27T09:06:08.303Z,40.86
2022-08-27T09:08:41.631Z,41.19
2022-08-27T09:11:32.805Z,40.37
2022-08-27T09:14:12.799Z,41.16
2022-08-27T09:16:40.645Z,41.72
2022-08-27T09:19:07.755Z,42.56
2022-08-27T09:21:59.826Z,39.99
2022-08-27T09:24:32.932Z,39.58
2022-08-27T09:27:00.307Z,40.64
2022-08-27T09:29:29.792Z,41.94
2022-08-27T09:32:00.868Z,41.19
2022-08-27T09:34:35.395Z,41.96
2022-08-27T09:37:10.508Z,41.73
2022-08-27T09:40:04.450Z,40.52
2022-08-27T09:42:53.803Z,41.48
2022-08-27T09:45:26.901Z,41.72
2022-08-27T09:47:55.597Z,40.80
2022-08-27T09:50:31.565Z,39.47
2022-08-27T09:53:00.162Z,38.43
2022-08-27T09:55:47.380Z,37.19
2022-08-27T09:58:22.442Z,37.35
2022-08-27T10:00:57.993Z,36.58
2022-08-27T10:03:26.523Z,36.95
2022-08-27T10:05:55.389Z,36.80
2022-08-27T10:08:28.749Z,36.72
2022-08-27T10:10:59.870Z,37.66
2022-08-27T10:13:41.047Z,36.03
2022-08-27T10:16:29.640Z,34.99
2022-08-27T10:19:33.880Z,35.65
2022-08-27T10:22:18.631Z,35.46
2022-08-27T10:25:08.763Z,35.20
2022-08-27T10:28:08.760Z,35.64
2022-08-27T10:30:58.694Z,36.69
2022-08-27T10:33:31.124Z,37.31
2022-08-27T10:36:10.603Z,36.44
2022-08-27T10:38:46.145Z,37.54
2022-08-27T10:41:22.770Z,37.78
2022-08-27T10:43:55.814Z,36.70
2022-08-27T10:46:27.137Z,36.77
2022-08-27T10:49:29.045Z,36.59
2022-08-27T10:52:13.618Z,37.86
2022-08-27T10:54:50.526Z,38.64
2022-08-27T10:57:51.746Z,37.93
2022-08-27T11:00:19.900Z,37.68
2022-08-27T11:02:54.074Z,36.36
2022-08-27T11:05:27.055Z,35.57
2022-08-27T11:08:00.468Z,34.42
2022-08-27T11:10:31.922Z,34.85
2022-08-27T11:13:33.152Z,34.66
2022-08-27T11:16:07.508Z,35.88
2022-08-27T11:18:42.730Z,36.16
2022-08-27T11:21:48.155Z,36.00
2022-08-27T11:24:31.995Z,37.91
2022-08-27T11:27:05.855Z,36.97
2022-08-27T11:29:40.063Z,36.23
2022-08-27T11:32:40.070Z,35.38
2022-08-27T11:35:26.424Z,35.68
2022-08-27T11:38:12.295Z,34.30
2022-08-27T11:41:04.074Z,33.27
2022-08-27T11:43:35.735Z,32.94
2022-08-27T11:46:05.971Z,32.61
2022-08-27T11:48:37.248Z,32.31
2022-08-27T11:51:06.398Z,32.83
2022-08-27T11:53:42.820Z,34.13
2022-08-27T11:56:36.859Z,34.57
2022-08-27T11:59:09.374Z,34.60
2022-08-27T12:01:36.589Z,34.81
2022-08-27T12:04:24.674Z,36.45
2022-08-27T12:07:06.721Z,36.91
2022-08-27T12:10:07.186Z,36.90
2022-08-27T12:12:45.857Z,37.05
2022-08-27T12:15:40.304Z,36.11
2022-08-27T12:18:19.093Z,34.88
2022-08-27T12:21:03.532Z,35.44
2022-08-27T12:23:50.056Z,33.47
2022-08-27T12:26:35.465Z,32.99
2022-08-27T12:29:31.361Z,33.40
2022-08-27T12:32:25.530Z,33.88
2022-08-27T12:35:19.341Z,34.62
2022-08-27T12:38:01.527Z,34.79
2022-08-27T12:40:51.950Z,34.47
2022-08-27T12:43:22.756Z,34.11
2022-08-27T12:45:56.011Z,34.39
2022-08-27T12:48:30.996Z,35.01
2022-08-27T12:51:02.042Z,35.60
2022-08-27T12:53:50.782Z,33.80
2022-08-27T12:56:23.911Z,33.31
2022-08-27T12:59:10.949Z,32.94
2022-08-27T13:02:19.778Z,32.35
2022-08-27T13:04:48.183Z,32.18
2022-08-27T13:07:41.559Z,32.13
2022-08-27T13:10:32.601Z,33.18
2022-08-27T13:13:10.275Z,33.08
2022-08-27T13:15:43.898Z,33.45
2022-08-27T13:18:11.999Z,33.07
2022-08-27T13:20:40.374Z,31.24
2022-08-27T13:23:18.494Z,31.37
2022-08-27T13:26:03.491Z,31.13
2022-08-27T13:28:31.613Z,31.33
2022-08-27T13:30:59.711Z,31.25
2022-08-27T13:33:30.060Z,30.99
2022-08-27T13:35:59.061Z,31.56
2022-08-27T13:38:31.613Z,30.80
2022-08-27T13:41:00.635Z,30.35
2022-08-27T13:43:39.740Z,29.80
2022-08-27T13:46:12.107Z,29.74
2022-08-27T13:48:44.454Z,29.66
2022-08-27T13:51:13.281Z,29.90
2022-08-27T13:54:07.210Z,30.49
2022-08-27T13:56:37.953Z,29.81
2022-08-27T13:59:10.552Z,29.10
2022-08-27T14:01:42.186Z,29.12
2022-08-27T14:04:20.404Z,28.54
2022-08-27T14:06:48.158Z,28.36
2022-08-27T14:09:15.006Z,28.68
2022-08-27T14:11:42.187Z,28.36
2022-08-27T14:14:09.437Z,28.37
2022-08-27T14:16:37.570Z,28.28
2022-08-27T14:19:12.278Z,28.40
2022-08-27T14:21:42.148Z,28.86
2022-08-27T14:24:09.461Z,28.59
2022-08-27T14:26:36.514Z,28.37
2022-08-27T14:29:03.566Z,28.36
2022-08-27T14:31:39.258Z,28.69
2022-08-27T14:34:08.517Z,28.34
2022-08-27T14:36:38.616Z,28.27
2022-08-27T14:39:06.124Z,28.40
2022-08-27T14:41:33.528Z,28.02
2022-08-27T14:44:00.543Z,28.61
2022-08-27T14:46:31.130Z,28.35
2022-08-27T14:49:01.147Z,28.92
2022-08-27T14:51:31.206Z,28.40
2022-08-27T14:53:58.204Z,28.42
2022-08-27T14:56:26.291Z,28.49
2022-08-27T14:58:53.851Z,28.18
2022-08-27T15:01:24.481Z,28.69
2022-08-27T15:03:52.533Z,28.17
2022-08-27T15:06:23.751Z,27.77
2022-08-27T15:08:51.600Z,27.48
2022-08-27T15:11:41.777Z,27.62
2022-08-27T15:14:16.298Z,27.61
2022-08-27T15:16:44.348Z,27.60
2022-08-27T15:19:13.653Z,27.45
2022-08-27T15:21:42.091Z,27.86
2022-08-27T15:24:26.949Z,27.99
2022-08-27T15:26:55.020Z,27.92
2022-08-27T15:29:22.024Z,28.10
2022-08-27T15:31:49.088Z,27.80
2022-08-27T15:34:16.265Z,28.00
2022-08-27T15:36:43.430Z,27.97
2022-08-27T15:39:11.064Z,27.69
2022-08-27T15:42:03.373Z,27.71
2022-08-27T15:44:26.669Z,27.65
2022-08-27T15:46:53.581Z,27.93
2022-08-27T15:49:21.096Z,27.39
2022-08-27T15:51:48.185Z,27.80
2022-08-27T15:54:15.521Z,28.07
2022-08-27T15:56:42.548Z,27.50
2022-08-27T15:59:09.792Z,27.24
2022-08-27T16:01:38.278Z,27.67
2022-08-27T16:04:06.206Z,27.51
2022-08-27T16:06:34.990Z,27.72
2022-08-27T16:09:02.496Z,27.50
2022-08-27T16:11:29.439Z,27.32
2022-08-27T16:13:56.709Z,27.13
2022-08-27T16:16:27.873Z,27.02
2022-08-27T16:18:55.138Z,27.12
2022-08-27T16:21:22.784Z,26.99
2022-08-27T16:23:49.960Z,26.68
2022-08-27T16:26:16.933Z,26.66
2022-08-27T16:28:44.808Z,26.55
2022-08-27T16:31:13.695Z,26.52
2022-08-27T16:33:44.136Z,26.45
2022-08-27T16:36:11.305Z,26.85
2022-08-27T16:38:38.377Z,27.05
2022-08-27T16:41:06.518Z,27.13
2022-08-27T16:43:33.742Z,27.11
2022-08-27T16:46:02.000Z,27.27
2022-08-27T16:48:48.241Z,27.04
2022-08-27T16:51:30.416Z,27.09
2022-08-27T16:54:01.248Z,26.91
2022-08-27T16:56:28.609Z,27.07
2022-08-27T16:58:56.247Z,27.48
2022-08-27T17:01:24.552Z,27.63
2022-08-27T17:04:18.129Z,27.77
2022-08-27T17:06:42.262Z,27.56
2022-08-27T17:09:10.691Z,27.25
2022-08-27T17:11:41.909Z,27.09
2022-08-27T17:14:10.909Z,27.18
2022-08-27T17:16:40.552Z,27.26
2022-08-27T17:19:07.737Z,27.26
2022-08-27T17:21:34.994Z,27.30
2022-08-27T17:24:02.732Z,27.13
2022-08-27T17:26:32.996Z,27.31
2022-08-27T17:29:00.397Z,27.44
2022-08-27T17:31:30.147Z,27.59
2022-08-27T17:33:59.713Z,27.35
2022-08-27T17:36:28.643Z,27.14
2022-08-27T17:38:56.082Z,27.23
2022-08-27T17:41:36.839Z,27.21
2022-08-27T17:44:07.904Z,26.67
2022-08-27T17:46:34.996Z,26.69
2022-08-27T17:49:02.181Z,26.50
2022-08-27T17:51:29.239Z,26.90
2022-08-27T17:54:01.574Z,26.83
2022-08-27T17:56:29.743Z,26.97
2022-08-27T17:58:56.802Z,26.92
2022-08-27T18:01:28.312Z,27.09
2022-08-27T18:03:57.119Z,27.17
2022-08-27T18:06:24.853Z,26.99
2022-08-27T18:08:52.078Z,26.89
2022-08-27T18:11:19.693Z,26.71
2022-08-27T18:13:52.303Z,26.65
2022-08-27T18:16:20.203Z,26.73
2022-08-27T18:18:47.721Z,26.68
2022-08-27T18:21:25.049Z,26.85
2022-08-27T18:23:52.450Z,26.67
2022-08-27T18:26:21.762Z,26.93
2022-08-27T18:28:49.220Z,26.99
2022-08-27T18:31:18.820Z,26.97
2022-08-27T18:33:46.318Z,26.74
2022-08-27T18:36:13.313Z,26.73
2022-08-27T18:38:40.317Z,26.64
2022-08-27T18:41:08.432Z,26.58
2022-08-27T18:43:36.700Z,26.51
2022-08-27T18:46:04.933Z,26.49
2022-08-27T18:48:33.054Z,26.46
2022-08-27T18:51:03.171Z,26.43
2022-08-27T18:53:33.765Z,26.67
2022-08-27T18:56:01.937Z,26.53
2022-08-27T18:58:29.078Z,26.53
2022-08-27T19:00:59.730Z,26.52
2022-08-27T19:03:31.356Z,26.51
2022-08-27T19:05:58.476Z,26.28
2022-08-27T19:08:28.297Z,26.15
2022-08-27T19:10:55.764Z,26.27
2022-08-27T19:13:23.145Z,26.18
2022-08-27T19:15:57.105Z,26.41
2022-08-27T19:18:26.299Z,26.24
2022-08-27T19:20:53.508Z,26.39
2022-08-27T19:23:22.476Z,26.59
2022-08-27T19:25:51.491Z,26.56
2022-08-27T19:28:24.698Z,26.44
2022-08-27T19:30:51.774Z,26.43
2022-08-27T19:33:18.751Z,26.34
2022-08-27T19:35:45.735Z,26.09
2022-08-27T19:38:14.333Z,25.98
2022-08-27T19:40:42.190Z,26.22
2022-08-27T19:43:09.845Z,26.29
2022-08-27T19:45:39.768Z,26.34
2022-08-27T19:48:09.148Z,26.29
2022-08-27T19:50:36.202Z,26.33
2022-08-27T19:53:03.126Z,26.28
2022-08-27T19:55:30.089Z,26.28
2022-08-27T19:57:57.107Z,26.08
2022-08-27T20:00:27.706Z,26.10
2022-08-27T20:02:56.207Z,25.99
2022-08-27T20:05:23.340Z,26.03
2022-08-27T20:07:52.330Z,26.17
2022-08-27T20:10:22.502Z,25.91
2022-08-27T20:12:50.126Z,25.95
2022-08-27T20:15:19.558Z,26.14
2022-08-27T20:17:47.064Z,26.31
2022-08-27T20:20:20.701Z,26.17
2022-08-27T20:22:47.937Z,25.88
2022-08-27T20:25:15.003Z,25.93
2022-08-27T20:27:42.377Z,25.46
2022-08-27T20:30:12.409Z,25.07
2022-08-27T20:32:39.564Z,24.85
2022-08-27T20:35:08.059Z,24.89
2022-08-27T20:37:40.036Z,24.71
2022-08-27T20:40:12.831Z,24.45
2022-08-27T20:42:40.014Z,24.24
2022-08-27T20:45:11.704Z,24.30
2022-08-27T20:47:39.694Z,24.43
2022-08-27T20:50:07.267Z,24.52
2022-08-27T20:52:35.736Z,24.59
2022-08-27T20:55:03.521Z,24.57
2022-08-27T20:57:30.560Z,24.90
2022-08-27T21:00:16.254Z,24.97
2022-08-27T21:02:43.177Z,24.62
2022-08-27T21:05:13.982Z,24.65
2022-08-27T21:07:42.380Z,24.77
2022-08-27T21:10:09.680Z,24.87
2022-08-27T21:12:36.728Z,24.95
2022-08-27T21:15:06.568Z,24.95
2022-08-27T21:17:34.090Z,24.95
2022-08-27T21:20:01.331Z,24.97
2022-08-27T21:22:28.338Z,25.05
2022-08-27T21:24:55.502Z,25.06
2022-08-27T21:27:22.823Z,24.89
2022-08-27T21:29:50.307Z,25.03
2022-08-27T21:32:17.471Z,25.06
2022-08-27T21:34:44.500Z,24.92
2022-08-27T21:37:13.727Z,24.87
2022-08-27T21:39:42.457Z,24.80
2022-08-27T21:42:10.639Z,24.84
2022-08-27T21:44:38.210Z,24.75
2022-08-27T21:47:06.124Z,24.59
2022-08-27T21:49:33.185Z,24.14
2022-08-27T21:52:03.667Z,24.13
2022-08-27T21:54:36.974Z,24.23
2022-08-27T21:57:06.036Z,24.40
2022-08-27T21:59:39.056Z,24.63
2022-08-27T22:02:18.348Z,24.75
2022-08-27T22:04:52.970Z,24.80
2022-08-27T22:07:20.008Z,24.83
2022-08-27T22:09:47.062Z,24.83
2022-08-27T22:12:14.069Z,24.75
2022-08-27T22:14:41.268Z,24.58
2022-08-27T22:17:08.828Z,24.29
2022-08-27T22:19:35.813Z,24.23
2022-08-27T22:22:02.900Z,24.38
2022-08-27T22:24:29.874Z,24.27
2022-08-27T22:26:56.801Z,24.29
2022-08-27T22:29:24.706Z,24.62
2022-08-27T22:31:51.886Z,24.71
2022-08-27T22:34:18.897Z,24.36
2022-08-27T22:36:45.976Z,24.04
2022-08-27T22:39:12.958Z,23.98
2022-08-27T22:41:40.362Z,23.79
2022-08-27T22:44:11.353Z,23.66
2022-08-27T22:46:38.311Z,23.65
2022-08-27T22:49:05.329Z,23.60
2022-08-27T22:51:32.417Z,23.41
2022-08-27T22:53:59.461Z,23.02
2022-08-27T22:56:26.456Z,22.97
2022-08-27T22:58:53.391Z,22.93
2022-08-27T23:01:22.083Z,23.22
2022-08-27T23:03:49.273Z,23.16
2022-08-27T23:06:16.385Z,23.19
2022-08-27T23:08:43.863Z,23.03
2022-08-27T23:11:11.086Z,23.27
2022-08-27T23:13:38.892Z,23.37
2022-08-27T23:16:06.250Z,23.53
2022-08-27T23:18:33.511Z,23.51
2022-08-27T23:21:00.449Z,23.51
2022-08-27T23:23:29.921Z,23.46
2022-08-27T23:26:17.418Z,23.41
2022-08-27T23:28:44.794Z,23.08
2022-08-27T23:31:13.115Z,23.12
2022-08-27T23:33:41.334Z,22.99
2022-08-27T23:36:09.842Z,22.96
2022-08-27T23:38:36.777Z,23.18
2022-08-27T23:41:03.908Z,23.49
2022-08-27T23:43:30.912Z,23.53
2022-08-27T23:45:57.839Z,22.75
2022-08-27T23:48:25.072Z,22.53
2022-08-27T23:50:52.149Z,22.16
2022-08-27T23:53:19.125Z,21.95
2022-08-27T23:55:46.150Z,22.21
2022-08-27T23:58:13.512Z,22.33
